Time;durP1;ratioP1;P1;durP2;ratioP2;P2;SDS_P1;SDS_P2;PMS_P1;PMS_P2;Temp;Humidity;BMP_temperature;BMP_pressure;BME280_temperature;BME280_humidity;BME280_pressure;Samples;Min_cycle;Max_cycle;Signal;HPM_P1;HPM_P2
2023/01/16 00:01:49;;;;;;;4.25;0.98;;;;;;;5.54;82.75;98020.03;5041140;28;20121;-79
2023/01/16 00:04:14;;;;;;;3.50;0.90;;;;;;;5.59;82.44;98017.31;5042686;28;20028;-80
2023/01/16 00:06:40;;;;;;;5.07;1.00;;;;;;;5.59;82.28;98014.63;5042623;28;20082;-79
2023/01/16 00:09:06;;;;;;;4.05;1.10;;;;;;;5.47;82.55;98013.00;5041965;28;20045;-78
2023/01/16 00:11:31;;;;;;;2.00;0.70;;;;;;;5.40;82.96;97996.28;5042602;28;20035;-78
2023/01/16 00:13:58;;;;;;;2.05;0.60;;;;;;;5.49;82.84;98001.94;5042114;28;20035;-79
2023/01/16 00:16:23;;;;;;;2.53;0.85;;;;;;;5.58;82.47;98005.69;5042899;28;20124;-79
2023/01/16 00:18:48;;;;;;;3.97;1.95;;;;;;;5.59;81.48;97995.69;5041931;28;20940;-80
2023/01/16 00:21:14;;;;;;;5.63;1.30;;;;;;;5.47;82.44;97999.50;5042519;28;20032;-79
2023/01/16 00:23:39;;;;;;;4.65;1.13;;;;;;;5.44;82.27;97996.53;5042211;28;21349;-79
2023/01/16 00:26:09;;;;;;;5.03;1.43;;;;;;;5.49;82.21;97983.81;5042091;28;20118;-79
2023/01/16 00:28:37;;;;;;;3.15;1.95;;;;;;;5.36;82.29;97982.50;5041715;28;20771;-79
2023/01/16 00:31:02;;;;;;;3.40;1.48;;;;;;;5.41;81.74;97988.97;5042341;28;20048;-78
2023/01/16 00:33:28;;;;;;;5.03;0.82;;;;;;;5.37;82.20;97972.47;5041990;28;20033;-78
2023/01/16 00:35:53;;;;;;;2.87;1.27;;;;;;;5.40;81.91;97971.94;5042451;28;20037;-79
2023/01/16 00:38:18;;;;;;;3.00;0.73;;;;;;;5.51;81.51;97967.34;5041544;28;20277;-78
2023/01/16 00:40:43;;;;;;;4.00;0.77;;;;;;;5.59;81.16;97958.63;5042373;28;20729;-79
2023/01/16 00:43:09;;;;;;;2.50;0.73;;;;;;;5.49;81.69;97970.28;5042026;28;20044;-80
2023/01/16 00:45:34;;;;;;;5.95;1.60;;;;;;;5.54;81.51;97952.44;5042289;28;20041;-79
2023/01/16 00:47:59;;;;;;;2.65;0.82;;;;;;;5.49;80.80;97945.97;5041822;28;20106;-80
2023/01/16 00:50:25;;;;;;;2.45;0.80;;;;;;;5.56;81.63;97942.16;5042563;28;20036;-80
2023/01/16 00:52:50;;;;;;;2.05;0.73;;;;;;;5.62;81.62;97957.28;5042105;28;20064;-79
2023/01/16 00:55:15;;;;;;;5.03;1.00;;;;;;;5.65;80.94;97945.91;5042248;28;20069;-78
2023/01/16 00:57:41;;;;;;;3.35;0.90;;;;;;;5.72;80.50;97951.00;5041418;28;20250;-79
2023/01/16 01:00:07;;;;;;;6.38;1.40;;;;;;;5.73;80.21;97948.03;5042016;28;20036;-79
2023/01/16 01:02:32;;;;;;;1.33;0.50;;;;;;;5.58;80.33;97945.41;5042423;28;20671;-79
2023/01/16 01:04:58;;;;;;;3.90;1.00;;;;;;;5.55;80.02;97935.16;5041969;28;20056;-80
2023/01/16 01:07:23;;;;;;;2.67;0.50;;;;;;;5.53;80.08;97929.22;5041734;28;20041;-79
2023/01/16 01:09:48;;;;;;;4.03;0.50;;;;;;;5.40;80.19;97927.88;5041739;28;20090;-79
2023/01/16 01:12:14;;;;;;;4.97;1.25;;;;;;;5.49;79.94;97926.25;5041741;28;20258;-80
2023/01/16 01:14:39;;;;;;;7.22;1.05;;;;;;;5.57;79.95;97922.94;5044465;28;20036;-79
2023/01/16 01:17:04;;;;;;;3.28;0.68;;;;;;;5.60;79.19;97916.19;5045614;28;20029;-78
2023/01/16 01:19:30;;;;;;;23.03;1.57;;;;;;;5.54;79.89;97907.28;5045236;28;20490;-79
2023/01/16 01:21:55;;;;;;;3.60;1.00;;;;;;;5.62;79.26;97903.19;5045822;28;20254;-79
2023/01/16 01:24:21;;;;;;;7.05;1.25;;;;;;;5.52;79.45;97904.06;5045810;28;20045;-81
2023/01/16 01:26:46;;;;;;;2.42;1.00;;;;;;;5.51;79.90;97898.94;5045131;28;20040;-79
2023/01/16 01:29:11;;;;;;;2.25;0.90;;;;;;;5.60;79.66;97897.25;5044811;28;20036;-78
2023/01/16 01:31:36;;;;;;;2.33;0.70;;;;;;;5.63;79.47;97894.03;5045118;28;20037;-78
2023/01/16 01:34:02;;;;;;;3.60;1.17;;;;;;;5.55;79.53;97887.28;5045788;28;20041;-80
2023/01/16 01:36:27;;;;;;;4.20;0.77;;;;;;;5.53;79.71;97883.25;5044841;28;20040;-79
2023/01/16 01:38:53;;;;;;;2.22;0.63;;;;;;;5.58;79.13;97892.13;5045134;28;20041;-79
2023/01/16 01:41:18;;;;;;;3.25;0.82;;;;;;;5.51;80.00;97880.00;5045214;28;20065;-81
2023/01/16 01:43:55;;;;;;;2.38;0.73;;;;;;;5.51;79.82;97880.00;5045251;28;20052;-80
2023/01/16 01:46:40;;;;;;;5.95;1.92;;;;;;;5.57;79.74;97882.41;5044957;28;20041;-81
2023/01/16 01:49:26;;;;;;;2.97;1.77;;;;;;;5.60;79.14;97867.53;5044526;28;20045;-79
2023/01/16 01:51:54;;;;;;;2.20;0.60;;;;;;;5.52;79.29;97857.28;5044647;28;20043;-79
2023/01/16 01:54:24;;;;;;;2.83;1.02;;;;;;;5.47;79.39;97858.94;5044709;28;20029;-80
2023/01/16 01:56:55;;;;;;;2.10;0.90;;;;;;;5.51;79.53;97864.63;5044496;28;20510;-79
2023/01/16 01:59:26;;;;;;;3.70;1.35;;;;;;;5.58;79.11;97848.06;5044046;28;20032;-81
2023/01/16 02:01:54;;;;;;;4.10;0.88;;;;;;;5.65;79.22;97854.00;5044693;28;20402;-80
2023/01/16 02:04:23;;;;;;;3.15;1.00;;;;;;;5.70;78.55;97847.72;5044822;28;20024;-80
2023/01/16 02:06:53;;;;;;;1.67;0.52;;;;;;;5.65;78.66;97835.06;5044501;28;20379;-81
2023/01/16 02:09:21;;;;;;;1.95;0.77;;;;;;;5.60;78.60;97829.66;5043920;28;20040;-80
2023/01/16 02:12:00;;;;;;;2.20;0.52;;;;;;;5.60;78.28;97813.44;5044092;28;20040;-80
2023/01/16 02:14:27;;;;;;;2.08;0.80;;;;;;;5.66;78.46;97817.75;5044810;28;20549;-80
2023/01/16 02:20:01;;;;;;;3.30;0.70;;;;;;;5.58;78.69;97802.09;5044430;28;20521;-79
2023/01/16 02:22:51;;;;;;;2.05;0.40;;;;;;;5.59;78.69;97798.34;5044034;28;20569;-80
2023/01/16 02:25:54;;;;;;;2.53;0.63;;;;;;;5.45;78.97;97788.13;5043436;28;20110;-79
2023/01/16 02:28:44;;;;;;;1.42;0.50;;;;;;;5.40;79.17;97782.75;5043831;28;20858;-80
2023/01/16 02:31:31;;;;;;;4.97;1.08;;;;;;;5.35;79.88;97777.41;5044168;28;20025;-80
2023/01/16 02:34:12;;;;;;;2.63;0.50;;;;;;;5.30;79.73;97772.00;5043930;28;20286;-80
2023/01/16 02:37:09;;;;;;;5.38;0.70;;;;;;;5.29;79.90;97770.41;5044065;28;20048;-78
2023/01/16 02:39:41;;;;;;;2.22;0.60;;;;;;;5.33;79.71;97757.94;5044468;28;20462;-80
2023/01/16 02:42:33;;;;;;;1.00;0.40;;;;;;;5.34;80.04;97756.84;5043579;28;20040;-80
2023/01/16 02:45:20;;;;;;;2.08;0.75;;;;;;;5.37;80.24;97756.28;5043748;28;20049;-80
2023/01/16 02:47:56;;;;;;;2.03;0.40;;;;;;;5.28;80.34;97742.56;5043536;28;20090;-80
2023/01/16 02:50:30;;;;;;;0.85;0.68;;;;;;;5.27;80.35;97734.75;5044426;28;20040;-80
2023/01/16 02:53:16;;;;;;;1.48;0.80;;;;;;;5.31;80.56;97725.00;5044040;28;20033;-79
2023/01/16 02:56:04;;;;;;;6.28;0.52;;;;;;;5.36;80.06;97722.25;5042468;28;20111;-81
2023/01/16 02:58:32;;;;;;;5.45;1.42;;;;;;;5.25;80.42;97711.50;5043805;28;20458;-79
2023/01/16 03:00:59;;;;;;;3.53;1.02;;;;;;;5.33;80.08;97712.00;5043712;28;20051;-80
2023/01/16 03:03:31;;;;;;;2.13;0.40;;;;;;;5.34;80.58;97697.41;5044165;28;20052;-81
2023/01/16 03:06:06;;;;;;;1.08;0.40;;;;;;;5.20;81.22;97689.94;5043915;28;20033;-80
2023/01/16 03:08:45;;;;;;;2.03;0.50;;;;;;;5.10;81.71;97688.09;5043467;28;20067;-80
2023/01/16 03:11:22;;;;;;;2.17;1.08;;;;;;;5.13;81.88;97692.13;5044031;28;20032;-80
2023/01/16 03:14:02;;;;;;;2.03;0.70;;;;;;;5.23;81.49;97688.53;5043621;28;20037;-80
2023/01/16 03:17:05;;;;;;;1.52;0.40;;;;;;;5.36;81.09;97684.41;5043868;28;20040;-78
2023/01/16 03:20:00;;;;;;;1.58;0.60;;;;;;;5.35;81.36;97675.47;5043964;28;20036;-80
2023/01/16 03:22:39;;;;;;;1.77;0.52;;;;;;;5.35;81.02;97675.47;5043695;28;20118;-80
2023/01/16 03:25:21;;;;;;;0.88;0.40;;;;;;;5.24;81.21;97669.38;5043449;28;20598;-80
2023/01/16 03:28:03;;;;;;;2.28;0.32;;;;;;;5.31;80.85;97660.91;5042644;28;20657;-79
2023/01/16 03:30:55;;;;;;;1.27;0.40;;;;;;;5.32;80.51;97661.75;5043612;28;20025;-80
2023/01/16 03:33:31;;;;;;;0.80;0.40;;;;;;;5.31;80.57;97660.91;5040494;28;20037;-80
2023/01/16 03:36:01;;;;;;;2.58;0.50;;;;;;;5.23;80.83;97646.13;5043969;28;20170;-80
2023/01/16 03:38:30;;;;;;;1.17;0.28;;;;;;;5.11;81.03;97643.78;5043014;28;20120;-79
2023/01/16 03:40:59;;;;;;;1.10;0.60;;;;;;;5.14;81.15;97634.31;5042812;28;20068;-80
2023/01/16 03:43:30;;;;;;;1.23;0.13;;;;;;;5.19;80.84;97623.44;5043395;28;20043;-80
2023/01/16 03:46:00;;;;;;;1.00;0.30;;;;;;;5.10;81.06;97625.97;5043218;28;20141;-80
2023/01/16 03:48:47;;;;;;;2.10;0.25;;;;;;;5.19;80.91;97628.84;5042611;28;20061;-79
2023/01/16 03:51:22;;;;;;;0.80;0.22;;;;;;;5.23;80.24;97629.91;5042545;28;20044;-80
2023/01/16 03:54:00;;;;;;;1.90;0.63;;;;;;;5.26;80.25;97615.03;5042617;28;20064;-79
2023/01/16 03:56:49;;;;;;;3.03;0.55;;;;;;;5.25;80.47;97603.41;5042982;28;20044;-80
2023/01/16 03:59:16;;;;;;;3.20;0.65;;;;;;;5.35;79.59;97601.75;5042916;28;20227;-81
2023/01/16 04:01:50;;;;;;;3.22;0.35;;;;;;;5.39;79.95;97586.53;5043367;28;20064;-81
2023/01/16 04:04:19;;;;;;;;;;;;;;;5.39;79.24;97586.53;5043425;28;20478;-81
2023/01/16 04:06:47;;;;;;;1.02;0.28;;;;;;;5.42;79.16;97580.59;5042740;28;20286;-80
2023/01/16 04:09:31;;;;;;;0.93;0.25;;;;;;;5.39;79.31;97578.44;5042844;28;20039;-80
2023/01/16 04:11:59;;;;;;;0.35;0.20;;;;;;;5.33;79.72;97568.78;5042221;28;20029;-81
2023/01/16 04:14:26;;;;;;;2.20;0.75;;;;;;;5.36;79.84;97565.50;5042729;28;20124;-80
2023/01/16 04:16:51;;;;;;;0.52;0.25;;;;;;;5.36;79.63;97560.09;5042890;28;20086;-79
2023/01/16 04:19:18;;;;;;;1.10;0.30;;;;;;;5.37;80.02;97551.69;5042278;28;20041;-81
2023/01/16 04:21:46;;;;;;;0.38;0.17;;;;;;;5.33;79.46;97545.25;5042497;28;20271;-80
2023/01/16 04:24:12;;;;;;;3.05;0.60;;;;;;;5.33;80.51;97539.84;5042581;28;20037;-81
2023/01/16 04:26:37;;;;;;;1.38;0.35;;;;;;;5.20;80.56;97535.13;5042372;28;20025;-80
2023/01/16 04:29:02;;;;;;;3.15;0.82;;;;;;;5.22;81.09;97527.53;5042439;28;20060;-81
2023/01/16 04:31:28;;;;;;;1.08;0.40;;;;;;;5.24;80.44;97519.94;5042256;28;20379;-81
2023/01/16 04:33:54;;;;;;;3.10;0.43;;;;;;;5.28;80.87;97510.19;5042580;28;20222;-80
2023/01/16 04:36:20;;;;;;;1.95;0.47;;;;;;;5.34;80.79;97505.53;5042597;28;20128;-80
2023/01/16 04:38:45;;;;;;;1.00;0.38;;;;;;;5.27;80.68;97491.56;5041786;28;20080;-78
2023/01/16 04:41:10;;;;;;;1.95;0.22;;;;;;;5.35;81.04;97493.66;5042880;28;20075;-81
2023/01/16 04:43:35;;;;;;;3.80;1.20;;;;;;;5.34;80.79;97475.81;5042679;28;20059;-80
2023/01/16 04:46:01;;;;;;;3.30;1.40;;;;;;;5.44;80.51;97475.69;5042551;28;20327;-80
2023/01/16 04:48:26;;;;;;;1.52;0.50;;;;;;;5.21;80.54;97467.28;5042699;28;20293;-80
2023/01/16 04:50:51;;;;;;;2.67;0.70;;;;;;;5.04;81.09;97461.50;5046910;28;20033;-80
2023/01/16 04:53:16;;;;;;;1.20;0.30;;;;;;;5.03;81.50;97447.19;5046687;28;20639;-80
2023/01/16 04:55:42;;;;;;;3.53;0.50;;;;;;;5.01;81.59;97435.88;5046482;28;20843;-80
2023/01/16 04:58:07;;;;;;;2.63;0.60;;;;;;;5.07;81.02;97433.91;5045572;28;20778;-81
2023/01/16 05:00:32;;;;;;;2.53;1.10;;;;;;;4.92;81.97;97418.69;5046925;28;20102;-79
2023/01/16 05:02:58;;;;;;;2.03;0.90;;;;;;;4.91;82.11;97420.56;5046300;28;20262;-79
2023/01/16 05:05:23;;;;;;;3.40;0.70;;;;;;;4.96;81.63;97412.44;5046666;28;20025;-80
2023/01/16 05:10:33;;;;;;;1.35;0.60;;;;;;;4.91;81.79;97396.28;5046697;28;20056;-79
2023/01/16 05:12:58;;;;;;;2.17;0.95;;;;;;;4.84;82.04;97393.13;5046043;28;20127;-80
2023/01/16 05:15:23;;;;;;;3.42;1.15;;;;;;;4.86;81.84;97385.53;5046388;28;20036;-81
2023/01/16 05:17:48;;;;;;;1.63;0.60;;;;;;;4.97;81.10;97381.63;5045414;28;20056;-80
2023/01/16 05:20:14;;;;;;;4.40;0.50;;;;;;;4.88;81.48;97364.47;5046269;28;20040;-80
2023/01/16 05:22:39;;;;;;;2.50;0.80;;;;;;;4.88;81.46;97367.16;5045729;28;20270;-81
2023/01/16 05:25:05;;;;;;;1.70;0.40;;;;;;;5.01;81.22;97358.34;5045717;28;20579;-80
2023/01/16 05:27:30;;;;;;;2.50;0.30;;;;;;;5.02;80.62;97334.88;5045861;28;20297;-81
2023/01/16 05:29:55;;;;;;;3.17;1.27;;;;;;;4.93;81.16;97340.09;5046003;28;20024;-80
2023/01/16 05:32:20;;;;;;;3.67;1.00;;;;;;;4.89;81.45;97336.34;5046326;28;20467;-80
2023/01/16 05:34:45;;;;;;;5.20;0.90;;;;;;;4.95;80.88;97323.59;5045627;28;20701;-81
2023/01/16 05:37:11;;;;;;;2.40;0.60;;;;;;;4.97;81.20;97316.81;5045467;28;20040;-81
2023/01/16 05:39:36;;;;;;;4.97;1.20;;;;;;;5.00;80.65;97310.03;5045625;28;20353;-79
2023/01/16 05:42:01;;;;;;;4.75;0.68;;;;;;;4.95;80.68;97297.41;5045784;28;20044;-81
2023/01/16 05:44:26;;;;;;;3.60;1.05;;;;;;;4.92;80.74;97308.78;5045149;28;20096;-81
2023/01/16 05:46:52;;;;;;;1.97;0.57;;;;;;;4.90;80.94;97305.56;5045384;28;20112;-81
2023/01/16 05:49:17;;;;;;;1.98;0.38;;;;;;;4.92;81.09;97300.69;5044925;28;20643;-81
2023/01/16 05:51:42;;;;;;;0.75;0.45;;;;;;;4.95;80.33;97292.00;5045093;28;20028;-80
2023/01/16 05:54:10;;;;;;;2.75;1.55;;;;;;;4.97;80.61;97284.41;5045004;28;20037;-80
2023/01/16 05:56:35;;;;;;;3.50;0.77;;;;;;;4.95;80.56;97281.19;5044900;28;20040;-79
2023/01/16 05:59:01;;;;;;;1.90;0.97;;;;;;;5.00;80.31;97273.00;5045073;28;20839;-80
2023/01/16 06:01:26;;;;;;;8.47;0.60;;;;;;;5.10;80.07;97269.41;5043842;28;20297;-80
2023/01/16 06:03:51;;;;;;;4.70;0.73;;;;;;;4.98;80.10;97252.81;5044910;28;20642;-80
2023/01/16 06:06:16;;;;;;;1.73;0.38;;;;;;;4.97;79.89;97243.09;5045310;28;20680;-80
2023/01/16 06:08:42;;;;;;;4.40;0.43;;;;;;;5.00;80.09;97246.00;5044903;28;20048;-80
2023/01/16 06:11:07;;;;;;;3.23;0.60;;;;;;;4.98;80.21;97240.09;5044348;28;20250;-81
2023/01/16 06:13:32;;;;;;;1.77;0.50;;;;;;;4.98;79.58;97232.00;5044848;28;20269;-80
2023/01/16 06:15:57;;;;;;;1.27;0.55;;;;;;;5.06;79.74;97216.25;5045386;28;20304;-79
2023/01/16 06:18:23;;;;;;;0.87;0.30;;;;;;;5.05;79.58;97203.81;5044385;28;20460;-80
2023/01/16 06:20:48;;;;;;;2.73;0.43;;;;;;;5.06;79.56;97205.44;5044688;28;20254;-80
2023/01/16 06:23:13;;;;;;;3.05;1.00;;;;;;;5.07;79.79;97193.53;5045006;28;20296;-81
2023/01/16 06:25:39;;;;;;;1.63;0.53;;;;;;;4.94;80.01;97173.47;5044702;28;20081;-80
2023/01/16 06:28:04;;;;;;;5.03;1.15;;;;;;;4.99;79.82;97174.19;5044244;28;20316;-80
2023/01/16 06:30:29;;;;;;;1.43;0.30;;;;;;;5.01;79.50;97157.69;5044600;28;20177;-80
2023/01/16 06:32:54;;;;;;;1.20;0.85;;;;;;;4.97;79.79;97156.69;5044858;28;20724;-81
2023/01/16 06:35:20;;;;;;;3.40;0.53;;;;;;;5.02;79.10;97160.09;5044216;28;20048;-80
2023/01/16 06:37:45;;;;;;;1.27;0.30;;;;;;;5.02;79.69;97149.31;5043632;28;20381;-81
2023/01/16 06:40:11;;;;;;;3.33;0.57;;;;;;;5.05;80.09;97149.81;5044151;28;20037;-81
2023/01/16 06:42:36;;;;;;;1.10;0.38;;;;;;;4.90;79.54;97143.56;5044421;28;20063;-80
2023/01/16 06:45:01;;;;;;;3.38;0.50;;;;;;;4.92;79.75;97135.97;5044129;28;20076;-80
2023/01/16 06:47:27;;;;;;;1.55;0.63;;;;;;;4.98;80.05;97139.41;5044493;28;20021;-80
2023/01/16 06:49:53;;;;;;;2.22;0.47;;;;;;;4.94;80.24;97135.66;5044091;28;20643;-81
2023/01/16 06:52:18;;;;;;;2.55;0.65;;;;;;;5.03;80.06;97131.22;5044091;28;20074;-80
2023/01/16 06:54:43;;;;;;;3.33;1.17;;;;;;;5.06;79.53;97127.94;5044025;28;20045;-80
2023/01/16 06:57:08;;;;;;;3.35;1.15;;;;;;;5.02;79.67;97118.81;5043754;28;20067;-81
2023/01/16 06:59:34;;;;;;;6.20;0.80;;;;;;;4.98;79.76;97118.56;5043778;28;20036;-80
2023/01/16 07:01:59;;;;;;;1.63;0.60;;;;;;;5.10;80.14;97114.63;5043886;28;20589;-81
2023/01/16 07:04:24;;;;;;;1.75;0.98;;;;;;;5.08;79.82;97093.34;5044394;28;20245;-81
2023/01/16 07:06:50;;;;;;;1.40;0.87;;;;;;;5.08;79.83;97100.63;5043661;28;20033;-81
2023/01/16 07:09:16;;;;;;;2.20;1.05;;;;;;;5.20;79.75;97092.06;5043190;28;20290;-80
2023/01/16 07:11:41;;;;;;;1.33;0.50;;;;;;;5.14;79.61;97073.25;5043230;28;20119;-81
2023/01/16 07:22:35;;;;;;;1.77;1.00;;;;;;;5.14;78.82;97064.34;5043326;28;20139;-81
2023/01/16 07:25:02;;;;;;;5.38;1.13;;;;;;;5.09;79.55;97059.00;5043587;28;20061;-81
2023/01/16 07:27:28;;;;;;;1.55;0.85;;;;;;;5.20;79.36;97059.66;5043022;28;20040;-81
2023/01/16 07:29:53;;;;;;;2.60;0.70;;;;;;;5.31;79.08;97041.38;5043486;28;20076;-81
2023/01/16 07:32:19;;;;;;;3.15;0.80;;;;;;;5.21;79.18;97026.13;5042015;28;20045;-81
2023/01/16 07:34:44;;;;;;;2.58;1.17;;;;;;;5.08;79.51;97023.09;5042667;28;20544;-80
2023/01/16 07:37:10;;;;;;;1.43;0.80;;;;;;;5.06;79.56;97016.41;5042637;28;20040;-80
2023/01/16 07:39:36;;;;;;;2.03;1.10;;;;;;;5.20;79.27;97014.53;5043140;28;20380;-80
2023/01/16 07:42:06;;;;;;;1.42;0.80;;;;;;;5.18;78.78;97005.94;5042922;28;20032;-81
2023/01/16 07:44:31;;;;;;;1.83;0.90;;;;;;;5.20;78.93;96990.22;5043072;28;20032;-81
2023/01/16 07:46:56;;;;;;;2.00;0.70;;;;;;;5.25;78.73;97003.63;5043125;28;20025;-80
2023/01/16 07:49:21;;;;;;;2.87;0.87;;;;;;;5.33;78.58;96994.03;5043182;28;20122;-81
2023/01/16 07:51:48;;;;;;;4.13;1.00;;;;;;;5.33;78.65;96987.84;5042834;28;20670;-80
2023/01/16 07:54:13;;;;;;;1.03;0.40;;;;;;;5.38;77.87;96985.03;5043332;28;20036;-80
2023/01/16 07:56:39;;;;;;;2.30;1.02;;;;;;;5.39;77.15;96975.81;5043027;28;20278;-80
2023/01/16 07:59:04;;;;;;;3.08;0.55;;;;;;;5.36;78.20;96971.84;5042602;28;20037;-79
2023/01/16 08:01:29;;;;;;;2.35;0.70;;;;;;;5.35;78.34;96964.03;5042937;28;20036;-80
2023/01/16 08:03:55;;;;;;;2.35;1.17;;;;;;;5.37;78.26;96929.38;5043183;28;20181;-80
2023/01/16 08:06:20;;;;;;;10.02;1.75;;;;;;;5.37;78.41;96937.47;5043230;28;20044;-80
2023/01/16 08:08:45;;;;;;;4.05;0.80;;;;;;;5.39;77.94;96927.19;5041194;28;20698;-80
2023/01/16 08:13:54;;;;;;;4.63;1.17;;;;;;;5.25;78.14;96917.19;5042823;28;20284;-80
2023/01/16 08:16:19;;;;;;;7.40;1.00;;;;;;;5.24;79.41;96903.97;5042607;28;20116;-80
2023/01/16 08:18:48;;;;;;;4.80;0.47;;;;;;;5.22;79.74;96893.47;5042756;28;20281;-81
2023/01/16 08:21:13;;;;;;;2.35;0.95;;;;;;;5.12;80.87;96880.16;5043111;28;20294;-80
2023/01/16 08:23:40;;;;;;;3.97;1.50;;;;;;;5.11;81.62;96867.75;5042332;28;20448;-80
2023/01/16 08:26:05;;;;;;;1.55;0.65;;;;;;;4.97;82.19;96857.75;5042768;28;20494;-80
2023/01/16 08:28:30;;;;;;;3.67;0.45;;;;;;;4.94;83.30;96847.56;5042342;28;20048;-80
2023/01/16 08:30:56;;;;;;;4.20;1.27;;;;;;;4.80;83.76;96831.31;5042543;28;20037;-80
2023/01/16 08:33:21;;;;;;;4.77;0.80;;;;;;;4.75;84.76;96839.53;5043005;28;20091;-81
2023/01/16 08:35:46;;;;;;;3.60;0.95;;;;;;;4.94;84.69;96820.56;5042810;28;20261;-81
2023/01/16 08:38:11;;;;;;;2.30;0.90;;;;;;;4.89;84.32;96817.94;5042300;28;20490;-81
2023/01/16 08:40:37;;;;;;;5.50;0.90;;;;;;;4.87;84.25;96804.75;5042753;28;20254;-80
2023/01/16 08:51:23;;;;;;;3.88;2.05;;;;;;;4.99;83.37;96793.44;5042865;28;20047;-81
2023/01/16 08:53:52;;;;;;;3.80;0.55;;;;;;;4.90;83.41;96787.16;5042807;28;20457;-80
2023/01/16 08:56:18;;;;;;;1.25;0.50;;;;;;;5.01;83.41;96777.75;5039841;28;20033;-80
2023/01/16 08:58:44;;;;;;;2.35;0.70;;;;;;;4.98;82.84;96789.13;5042355;28;20043;-81
2023/01/16 09:01:09;;;;;;;2.97;0.55;;;;;;;4.99;82.12;96782.63;5042717;28;20028;-80
2023/01/16 09:03:34;;;;;;;2.22;0.80;;;;;;;5.04;82.28;96770.94;5042622;28;20594;-81
2023/01/16 09:06:00;;;;;;;2.28;0.50;;;;;;;5.00;82.37;96762.63;5042699;28;20398;-81
2023/01/16 09:08:26;;;;;;;3.35;1.30;;;;;;;5.09;82.16;96757.31;5040315;28;20102;-81
2023/01/16 09:13:50;;;;;;;5.65;1.17;;;;;;;4.95;82.23;96765.44;5042625;28;20064;-81
2023/01/16 09:16:20;;;;;;;2.47;0.98;;;;;;;5.03;82.06;96745.03;5042434;28;20045;-81
2023/01/16 09:18:46;;;;;;;2.40;1.35;;;;;;;5.01;81.24;96728.31;5041634;28;20121;-80
2023/01/16 09:21:11;;;;;;;2.20;0.70;;;;;;;5.06;81.49;96744.44;5040881;28;20120;-80
2023/01/16 09:23:36;;;;;;;3.10;0.75;;;;;;;5.17;80.86;96726.09;5041740;28;20087;-80
2023/01/16 09:26:02;;;;;;;2.50;0.60;;;;;;;5.07;81.42;96723.59;5042535;28;20048;-81
2023/01/16 09:28:27;;;;;;;3.25;0.52;;;;;;;5.13;81.11;96712.41;5041853;28;20251;-81
2023/01/16 09:30:52;;;;;;;4.80;0.68;;;;;;;5.18;81.57;96729.59;5042793;28;20040;-81
2023/01/16 09:33:18;;;;;;;2.08;0.57;;;;;;;5.24;81.44;96721.09;5042441;28;20271;-80
2023/01/16 09:35:43;;;;;;;3.07;1.03;;;;;;;5.21;80.49;96713.56;5045184;28;20037;-81
2023/01/16 09:38:08;;;;;;;0.98;0.50;;;;;;;5.22;81.00;96715.19;5045221;28;20735;-80
2023/01/16 09:40:34;;;;;;;2.00;0.47;;;;;;;5.17;81.21;96701.78;5045957;28;20033;-81
2023/01/16 09:43:38;;;;;;;4.18;0.82;;;;;;;5.18;82.05;96716.91;5045722;28;20044;-81
2023/01/16 09:46:09;;;;;;;6.00;0.43;;;;;;;5.14;82.37;96713.22;5045034;28;20719;-80
2023/01/16 09:48:43;;;;;;;2.33;0.50;;;;;;;5.07;82.54;96710.09;5044066;28;20553;-80
2023/01/16 09:51:16;;;;;;;3.47;0.90;;;;;;;5.03;82.70;96696.41;5046771;28;20107;-81
2023/01/16 09:59:42;;;;;;;1.42;0.40;;;;;;;4.72;84.82;96689.75;5046478;28;20048;-81
2023/01/16 10:02:32;;;;;;;5.18;1.02;;;;;;;4.92;84.62;96686.94;5045030;28;20116;-80
2023/01/16 10:05:00;;;;;;;4.22;0.65;;;;;;;4.66;84.24;96677.47;5045373;28;20482;-80
2023/01/16 10:07:38;;;;;;;3.42;0.77;;;;;;;4.64;84.69;96676.97;5044596;28;20283;-81
2023/01/16 10:10:14;;;;;;;0.55;0.45;;;;;;;4.60;84.84;96679.47;5045477;28;20052;-82
2023/01/16 10:12:39;;;;;;;3.13;1.00;;;;;;;4.70;84.69;96669.59;5045277;28;20032;-77
2023/01/16 10:15:36;;;;;;;2.13;0.70;;;;;;;4.57;85.74;96650.41;5045546;28;20036;-80
2023/01/16 10:18:23;;;;;;;3.95;1.27;;;;;;;4.68;84.58;96659.06;5045077;28;20116;-84
2023/01/16 10:21:13;;;;;;;3.70;0.93;;;;;;;4.79;84.32;96662.38;5045487;28;20033;-81
2023/01/16 10:24:13;;;;;;;2.08;0.38;;;;;;;4.79;83.84;96657.78;5045693;28;20094;-80
2023/01/16 10:27:00;;;;;;;3.25;0.45;;;;;;;4.76;83.81;96647.56;5044863;28;20029;-82
2023/01/16 10:29:57;;;;;;;2.70;0.85;;;;;;;4.75;83.77;96634.38;5044218;28;20381;-82
2023/01/16 10:32:31;;;;;;;3.53;0.82;;;;;;;4.74;84.39;96638.97;5032612;28;20126;-81
2023/01/16 10:35:12;;;;;;;3.55;1.27;;;;;;;4.79;84.09;96630.78;5045081;28;20021;-81
2023/01/16 10:37:40;;;;;;;7.38;1.77;;;;;;;4.70;84.51;96643.38;5044458;28;20041;-80
2023/01/16 10:40:16;;;;;;;1.70;0.90;;;;;;;4.80;84.13;96620.75;5044563;28;20037;-80
2023/01/16 10:51:04;;;;;;;2.47;1.00;;;;;;;4.90;82.76;96603.56;5043233;28;20098;-81
2023/01/16 10:53:30;;;;;;;1.10;0.52;;;;;;;5.04;82.32;96573.00;5044231;28;20485;-79
2023/01/16 10:55:56;;;;;;;2.33;1.15;;;;;;;5.04;82.12;96600.00;5043557;28;20033;-79
2023/01/16 10:58:28;;;;;;;1.02;0.40;;;;;;;5.09;80.93;96579.06;5042463;28;20025;-81
2023/01/16 11:01:03;;;;;;;1.27;0.40;;;;;;;5.12;79.85;96559.56;5044173;28;20484;-79
2023/01/16 11:03:39;;;;;;;2.85;0.40;;;;;;;5.22;79.85;96545.03;5044326;28;20099;-80
2023/01/16 11:06:08;;;;;;;1.88;0.82;;;;;;;5.20;80.10;96541.81;5043635;28;20119;-79
2023/01/16 11:08:34;;;;;;;1.25;0.32;;;;;;;5.07;80.00;96553.47;5043207;28;20468;-79
2023/01/16 11:11:00;;;;;;;2.17;0.85;;;;;;;5.15;80.00;96533.84;5043054;28;20335;-79
2023/01/16 11:18:55;;;;;;;2.83;0.52;;;;;;;5.25;79.00;96528.19;5043204;28;20056;-81
2023/01/16 11:21:39;;;;;;;0.60;0.30;;;;;;;5.25;78.87;96522.78;5043969;28;20036;-80
2023/01/16 11:24:15;;;;;;;0.80;0.35;;;;;;;5.33;78.50;96515.03;5043319;28;20490;-78
2023/01/16 11:26:45;;;;;;;1.23;0.50;;;;;;;5.40;77.52;96507.28;5043339;28;20017;-79
2023/01/16 11:29:17;;;;;;;2.28;0.70;;;;;;;5.52;77.27;96498.59;5042992;28;20071;-80
2023/01/16 11:31:57;;;;;;;2.65;0.50;;;;;;;5.54;77.59;96484.75;5043374;28;20044;-80
2023/01/16 11:34:26;;;;;;;1.08;0.20;;;;;;;5.54;77.41;96493.66;5043402;28;20041;-80
2023/01/16 11:36:54;;;;;;;0.65;0.30;;;;;;;5.64;77.51;96486.38;5043118;28;20037;-80
2023/01/16 11:39:23;;;;;;;0.82;0.30;;;;;;;5.60;77.38;96470.81;5043490;28;20025;-84
2023/01/16 11:41:51;;;;;;;0.63;0.47;;;;;;;5.47;77.02;96463.63;5041762;28;20037;-79
2023/01/16 11:47:22;;;;;;;1.98;0.40;;;;;;;5.72;77.99;96453.97;5042993;28;20461;-79
2023/01/16 11:49:52;;;;;;;3.67;0.68;;;;;;;5.75;77.13;96451.75;5043132;28;20110;-79
2023/01/16 11:52:29;;;;;;;1.30;0.32;;;;;;;5.56;76.68;96439.31;5042917;28;20033;-79
2023/01/16 11:54:56;;;;;;;0.73;0.40;;;;;;;5.42;76.92;96423.22;5043032;28;20063;-81
2023/01/16 11:57:40;;;;;;;1.50;0.50;;;;;;;5.35;77.08;96445.28;5042803;28;20028;-79
2023/01/16 12:00:12;;;;;;;0.38;0.20;;;;;;;5.41;77.56;96421.63;5043348;28;20071;-80
2023/01/16 12:02:43;;;;;;;0.60;0.20;;;;;;;5.48;77.80;96422.75;5043010;28;20686;-83
2023/01/16 12:08:11;;;;;;;1.02;0.50;;;;;;;5.36;79.07;96407.16;5042088;28;20183;-80
2023/01/16 12:10:51;;;;;;;1.27;0.47;;;;;;;5.24;79.34;96393.44;5042632;28;20063;-79
2023/01/16 12:16:28;;;;;;;0.30;0.20;;;;;;;4.97;81.22;96366.34;5042737;28;20128;-79
2023/01/16 12:19:20;;;;;;;1.85;0.95;;;;;;;5.12;81.84;96358.94;5042102;28;20041;-79
2023/01/16 12:21:57;;;;;;;0.35;0.28;;;;;;;5.24;81.68;96364.53;5042042;28;20064;-80
2023/01/16 12:24:37;;;;;;;2.17;0.35;;;;;;;5.18;81.42;96359.56;5040365;28;20186;-79
2023/01/16 12:27:37;;;;;;;0.90;0.40;;;;;;;5.25;81.13;96349.91;5042070;28;20029;-78
2023/01/16 12:30:38;;;;;;;1.65;0.55;;;;;;;5.10;81.49;96343.03;5042332;28;21141;-78
2023/01/16 12:33:26;;;;;;;1.83;0.65;;;;;;;5.07;80.55;96337.44;5037360;28;20106;-78
2023/01/16 12:36:15;;;;;;;1.75;0.40;;;;;;;5.13;80.56;96337.00;5040948;28;20037;-78
2023/01/16 12:38:50;;;;;;;1.08;0.28;;;;;;;5.24;80.70;96324.00;5042503;28;20037;-79
2023/01/16 12:44:33;;;;;;;1.02;0.45;;;;;;;5.18;80.07;96303.66;5042578;28;20118;-78
2023/01/16 12:47:30;;;;;;;1.63;0.63;;;;;;;5.29;79.59;96297.97;5042637;28;20252;-87
2023/01/16 12:50:13;;;;;;;1.48;0.50;;;;;;;5.25;80.08;96279.69;5042343;28;20036;-79
2023/01/16 12:52:52;;;;;;;1.03;0.70;;;;;;;5.16;80.31;96281.56;5042381;28;20025;-78
2023/01/16 12:55:42;;;;;;;0.60;0.30;;;;;;;5.11;80.28;96279.00;5042023;28;20466;-78
2023/01/16 12:58:18;;;;;;;0.52;0.38;;;;;;;5.13;79.86;96272.19;5041550;28;20091;-77